Time;durP1;ratioP1;P1;durP2;ratioP2;P2;SDS_P1;SDS_P2;PMS_P1;PMS_P2;Temp;Humidity;BMP_temperature;BMP_pressure;BME280_temperature;BME280_humidity;BME280_pressure;Samples;Min_cycle;Max_cycle;Signal;HPM_P1;HPM_P2
2022/10/28 00:01:18;;;;;;;;;;;;;;;18.02;60.74;101253.59;4296862;33;19992;-85
2022/10/28 00:03:46;;;;;;;;;;;;;;;17.95;60.93;101257.03;4302598;33;19992;-84
2022/10/28 00:06:15;;;;;;;;;;;;;;;18.03;60.56;101247.50;4300687;33;20029;-84
2022/10/28 00:08:41;;;;;;;;;;;;;;;18.01;60.65;101251.84;4297747;33;21344;-84
2022/10/28 00:11:13;;;;;;;;;;;;;;;18.00;60.63;101250.09;4300075;33;20000;-84
2022/10/28 00:13:40;;;;;;;;;;;;;;;17.97;60.47;101255.31;4303315;33;19992;-85
2022/10/28 00:16:13;;;;;;;;;;;;;;;17.92;60.90;101251.78;4303168;33;20451;-84
2022/10/28 00:18:40;;;;;;;;;;;;;;;17.96;60.83;101252.66;4298668;33;20330;-82
2022/10/28 00:21:17;;;;;;;;;;;;;;;17.88;61.10;101250.00;4297464;33;20019;-85
2022/10/28 00:23:44;;;;;;;;;;;;;;;17.68;61.29;101252.41;4303974;33;19984;-84
2022/10/28 00:26:12;;;;;;;;;;;;;;;17.79;60.88;101249.91;4300886;33;20334;-85
2022/10/28 00:28:39;;;;;;;;;;;;;;;17.73;61.15;101249.81;4303308;33;19976;-84
2022/10/28 00:31:06;;;;;;;;;;;;;;;17.87;60.71;101253.50;4298543;33;20000;-84
2022/10/28 00:33:33;;;;;;;;;;;;;;;17.86;60.81;101251.72;4304641;33;19980;-84
2022/10/28 00:36:18;;;;;;;;;;;;;;;17.70;61.28;101249.78;4295813;33;19984;-84
2022/10/28 00:38:46;;;;;;;;;;;;;;;17.85;60.70;101249.97;4300709;33;19992;-85
2022/10/28 00:41:18;;;;;;;;;;;;;;;17.69;61.08;101248.03;4302198;33;20426;-85
2022/10/28 00:43:46;;;;;;;;;;;;;;;17.67;61.42;101246.25;4292462;33;20361;-84
2022/10/28 00:46:33;;;;;;;;;;;;;;;17.79;61.38;101252.53;4310584;33;20000;-84
2022/10/28 00:49:04;;;;;;;;;;;;;;;17.74;61.45;101256.81;4311854;33;19988;-85
2022/10/28 00:51:32;;;;;;;;;;;;;;;17.87;60.96;101253.50;4305796;33;20015;-85
2022/10/28 00:53:58;;;;;;;;;;;;;;;17.81;61.29;101253.44;4297159;33;19992;-84
2022/10/28 00:56:26;;;;;;;;;;;;;;;17.74;61.34;101251.56;4297460;33;19989;-84
2022/10/28 00:58:54;;;;;;;;;;;;;;;17.72;61.34;101248.94;4296622;33;19980;-83
2022/10/28 01:01:22;;;;;;;;;;;;;;;17.78;61.00;101242.94;4295787;33;19988;-84
2022/10/28 01:03:49;;;;;;;;;;;;;;;17.72;61.33;101245.44;4297493;33;20469;-84
2022/10/28 01:06:16;;;;;;;;;;;;;;;17.76;60.96;101240.25;4300477;33;20999;-83
2022/10/28 01:08:42;;;;;;;;;;;;;;;17.64;61.48;101237.50;4300884;33;20353;-85
2022/10/28 01:11:15;;;;;;;;;;;;;;;17.73;61.02;101245.44;4299919;33;19988;-85
2022/10/28 01:13:46;;;;;;;;;;;;;;;17.74;61.03;101246.31;4301907;33;20036;-82
2022/10/28 01:16:25;;;;;;;;;;;;;;;17.60;61.76;101244.47;4297457;33;19980;-85
2022/10/28 01:19:07;;;;;;;;;;;;;;;17.66;61.50;101244.53;4297801;33;19995;-84
2022/10/28 01:21:53;;;;;;;;;;;;;;;17.61;61.44;101243.63;4302433;33;20000;-84
2022/10/28 01:24:34;;;;;;;;;;;;;;;17.63;61.12;101238.38;4298189;33;20369;-84
2022/10/28 01:27:01;;;;;;;;;;;;;;;17.33;62.14;101233.72;4300470;33;19991;-84
2022/10/28 01:29:34;;;;;;;;;;;;;;;17.59;61.38;101236.59;4303882;33;20424;-84
2022/10/28 01:32:01;;;;;;;;;;;;;;;17.33;62.11;101233.72;4301789;33;19991;-84
2022/10/28 01:34:46;;;;;;;;;;;;;;;17.50;61.60;101231.28;4334181;33;19975;-84
2022/10/28 01:37:14;;;;;;;;;;;;;;;17.51;61.67;101230.41;4326245;33;19972;-84
2022/10/28 01:39:41;;;;;;;;;;;;;;;17.53;61.38;101226.94;4328335;33;20014;-84
2022/10/28 01:42:34;;;;;;;;;;;;;;;17.70;60.81;101228.84;4332828;33;19992;-84
2022/10/28 01:45:21;;;;;;;;;;;;;;;17.57;61.39;101228.72;4325136;33;20002;-84
2022/10/28 01:47:56;;;;;;;;;;;;;;;17.41;62.00;101232.03;4334455;33;19979;-84
2022/10/28 01:50:24;;;;;;;;;;;;;;;17.41;61.98;101226.81;4325189;33;19984;-84
2022/10/28 01:52:52;;;;;;;;;;;;;;;17.39;61.87;101228.56;4326945;33;20780;-84
2022/10/28 01:55:20;;;;;;;;;;;;;;;17.38;61.90;101232.00;4330219;33;20047;-84
2022/10/28 01:57:47;;;;;;;;;;;;;;;17.59;61.22;101232.25;4324944;33;19990;-84
2022/10/28 02:00:14;;;;;;;;;;;;;;;17.36;61.92;101231.13;4330601;33;20017;-85
2022/10/28 02:02:41;;;;;;;;;;;;;;;17.29;61.97;101234.53;4329674;33;19994;-84
2022/10/28 02:05:27;;;;;;;;;;;;;;;17.50;61.46;101234.75;4332711;33;19999;-84
2022/10/28 02:07:56;;;;;;;;;;;;;;;17.54;61.33;101231.31;4326167;33;20501;-84
2022/10/28 02:10:23;;;;;;;;;;;;;;;17.50;61.37;101221.66;4325891;33;19980;-83
2022/10/28 02:12:50;;;;;;;;;;;;;;;17.54;61.17;101227.81;4333194;33;20003;-85
2022/10/28 02:15:17;;;;;;;;;;;;;;;17.57;61.19;101227.84;4339258;33;19975;-85
2022/10/28 02:18:03;;;;;;;;;;;;;;;17.53;61.28;101223.44;4340609;33;19968;-85
2022/10/28 02:20:42;;;;;;;;;;;;;;;17.39;61.77;101228.56;4326811;33;19987;-83
2022/10/28 02:23:23;;;;;;;;;;;;;;;17.42;61.70;101219.00;4340669;33;19983;-84
2022/10/28 02:25:55;;;;;;;;;;;;;;;17.56;61.17;101226.97;4337839;33;19984;-85
2022/10/28 02:28:51;;;;;;;;;;;;;;;17.43;61.50;101225.09;4337835;33;19994;-84
2022/10/28 02:31:23;;;;;;;;;;;;;;;17.50;61.51;101215.56;4338791;33;19995;-85
2022/10/28 02:33:51;;;;;;;;;;;;;;;17.30;62.11;101223.22;4339619;33;20006;-85
2022/10/28 02:36:18;;;;;;;;;;;;;;;17.33;61.95;101226.75;4351433;32;20030;-85
2022/10/28 02:38:48;;;;;;;;;;;;;;;17.43;61.58;101230.34;4339179;33;19976;-84
2022/10/28 02:41:16;;;;;;;;;;;;;;;17.42;61.63;101233.78;4339710;33;19988;-85
2022/10/28 02:43:43;;;;;;;;;;;;;;;17.45;61.57;101233.81;4338915;32;19983;-85
2022/10/28 02:46:10;;;;;;;;;;;;;;;17.51;61.42;101233.87;4340520;33;19987;-84
2022/10/28 02:48:40;;;;;;;;;;;;;;;17.59;61.00;101232.25;4337986;32;20009;-84
2022/10/28 02:51:11;;;;;;;;;;;;;;;17.60;61.12;101223.50;4318974;32;19995;-84
2022/10/28 02:54:04;;;;;;;;;;;;;;;17.50;61.45;101226.91;4339149;33;20022;-86
2022/10/28 02:56:32;;;;;;;;;;;;;;;17.61;60.82;101217.44;4339505;33;19983;-84
2022/10/28 02:58:59;;;;;;;;;;;;;;;17.43;61.44;101217.25;4339028;33;19971;-84
2022/10/28 03:01:26;;;;;;;;;;;;;;;17.36;61.77;101212.81;4340002;33;19995;-84
2022/10/28 03:03:52;;;;;;;;;;;;;;;17.33;61.86;101207.56;4340072;33;20454;-84
2022/10/28 03:06:19;;;;;;;;;;;;;;;17.38;61.83;101217.19;4335691;33;20002;-84
2022/10/28 03:08:46;;;;;;;;;;;;;;;17.27;62.05;101207.47;4339766;33;19984;-84
2022/10/28 03:11:13;;;;;;;;;;;;;;;17.16;62.52;101210.84;4339225;33;19999;-85
2022/10/28 03:13:40;;;;;;;;;;;;;;;17.33;62.04;101215.41;4339864;33;20002;-84
2022/10/28 03:16:06;;;;;;;;;;;;;;;17.38;61.90;101211.94;4339965;33;19996;-83
2022/10/28 03:18:33;;;;;;;;;;;;;;;17.31;62.07;101214.50;4337860;33;19990;-84
2022/10/28 03:21:00;;;;;;;;;;;;;;;17.40;61.63;101218.09;4339428;33;19980;-84
2022/10/28 03:23:27;;;;;;;;;;;;;;;17.40;61.56;101219.84;4341764;33;20363;-85
2022/10/28 03:25:53;;;;;;;;;;;;;;;17.29;62.10;101222.31;4340852;33;19983;-84
2022/10/28 03:28:20;;;;;;;;;;;;;;;17.18;62.47;101216.97;4339850;33;19979;-84
2022/10/28 03:30:47;;;;;;;;;;;;;;;17.09;62.78;101218.59;4339441;32;19995;-84
2022/10/28 03:33:14;;;;;;;;;;;;;;;17.24;62.14;101220.53;4341378;33;20006;-84
2022/10/28 03:35:41;;;;;;;;;;;;;;;17.18;62.52;101227.44;4341048;33;20038;-85
2022/10/28 03:38:08;;;;;;;;;;;;;;;17.35;61.91;101226.75;4341523;33;19998;-85
2022/10/28 03:40:35;;;;;;;;;;;;;;;17.28;62.19;101222.31;4340846;33;19983;-85
2022/10/28 03:43:02;;;;;;;;;;;;;;;17.41;61.64;101216.34;4341776;33;19992;-81
2022/10/28 03:45:28;;;;;;;;;;;;;;;17.31;62.13;101224.97;4341358;33;20038;-84
2022/10/28 03:48:00;;;;;;;;;;;;;;;17.35;61.93;101222.38;4339633;33;20026;-84
2022/10/28 03:50:27;;;;;;;;;;;;;;;17.31;62.10;101224.97;4341751;33;19972;-84
2022/10/28 03:52:54;;;;;;;;;;;;;;;17.08;62.80;101215.12;4340938;33;20011;-84
2022/10/28 03:55:22;;;;;;;;;;;;;;;17.14;62.75;101211.72;4341371;33;19988;-83
2022/10/28 03:57:55;;;;;;;;;;;;;;;17.05;63.14;101212.47;4340860;33;20042;-84
2022/10/28 04:00:22;;;;;;;;;;;;;;;17.22;62.70;101219.63;4339761;33;19984;-84
2022/10/28 04:02:50;;;;;;;;;;;;;;;17.26;62.41;101216.16;4341548;33;19988;-84
2022/10/28 04:05:19;;;;;;;;;;;;;;;17.35;62.10;101213.66;4339554;33;19979;-84
2022/10/28 04:07:46;;;;;;;;;;;;;;;17.38;62.11;101213.69;4341420;33;19983;-84
2022/10/28 04:10:13;;;;;;;;;;;;;;;17.29;62.42;101208.34;4341293;33;19984;-84
2022/10/28 04:12:39;;;;;;;;;;;;;;;17.32;62.25;101206.66;4334176;33;20047;-84
2022/10/28 04:15:06;;;;;;;;;;;;;;;17.47;61.53;101203.31;4328766;33;20053;-84
2022/10/28 04:17:33;;;;;;;;;;;;;;;17.30;62.14;101202.28;4327122;33;19999;-84
2022/10/28 04:20:00;;;;;;;;;;;;;;;17.25;62.28;101198.72;4326622;33;20027;-84
2022/10/28 04:22:27;;;;;;;;;;;;;;;17.32;62.15;101205.78;4334609;33;20002;-85
2022/10/28 04:24:54;;;;;;;;;;;;;;;17.19;62.44;101195.16;4325178;33;20542;-83
2022/10/28 04:27:20;;;;;;;;;;;;;;;17.13;62.83;101197.75;4331859;33;19997;-85
2022/10/28 04:29:47;;;;;;;;;;;;;;;17.20;62.64;101196.94;4328830;33;20010;-84
2022/10/28 04:32:14;;;;;;;;;;;;;;;17.27;62.41;101202.25;4326066;33;19983;-84
2022/10/28 04:34:41;;;;;;;;;;;;;;;17.33;62.32;101199.69;4326323;33;19987;-83
2022/10/28 04:37:07;;;;;;;;;;;;;;;17.22;62.69;101185.59;4331494;33;19979;-84
2022/10/28 04:39:34;;;;;;;;;;;;;;;17.23;62.61;101184.72;4329074;33;20007;-84
2022/10/28 04:42:01;;;;;;;;;;;;;;;17.20;62.75;101185.59;4328330;33;19992;-83
2022/10/28 04:44:28;;;;;;;;;;;;;;;17.14;63.03;101183.78;4332846;33;20442;-85
2022/10/28 04:46:55;;;;;;;;;;;;;;;17.27;62.48;101186.53;4326403;33;19987;-84
2022/10/28 04:49:22;;;;;;;;;;;;;;;17.35;62.18;101184.88;4332924;33;19995;-82
2022/10/28 04:51:49;;;;;;;;;;;;;;;17.13;63.02;101179.44;4329528;33;20034;-86
2022/10/28 04:54:16;;;;;;;;;;;;;;;17.25;62.76;101181.28;4332612;33;20274;-85
2022/10/28 04:56:42;;;;;;;;;;;;;;;17.16;62.94;101176.81;4330936;33;20003;-83
2022/10/28 04:59:09;;;;;;;;;;;;;;;17.12;62.96;101172.41;4337293;33;20372;-82
2022/10/28 05:01:36;;;;;;;;;;;;;;;17.20;62.97;101181.25;4339385;33;19988;-82
2022/10/28 05:04:03;;;;;;;;;;;;;;;16.91;64.01;101182.63;4332962;33;19996;-82
2022/10/28 05:06:30;;;;;;;;;;;;;;;17.23;62.98;101184.72;4330523;33;20039;-83
2022/10/28 05:08:57;;;;;;;;;;;;;;;17.03;63.63;101182.78;4331374;33;20007;-81
2022/10/28 05:11:24;;;;;;;;;;;;;;;17.07;63.43;101179.37;4328303;33;19994;-82
2022/10/28 05:13:52;;;;;;;;;;;;;;;17.17;63.24;101180.34;4334912;33;20033;-83
2022/10/28 05:16:19;;;;;;;;;;;;;;;17.30;62.78;101170.88;4339074;33;20043;-84
2022/10/28 05:18:46;;;;;;;;;;;;;;;17.07;63.28;101179.37;4339063;33;19987;-81
2022/10/28 05:21:12;;;;;;;;;;;;;;;16.86;64.32;101179.09;4333481;33;20035;-80
2022/10/28 05:23:39;;;;;;;;;;;;;;;17.07;63.65;101183.69;4324930;33;19983;-82
2022/10/28 05:26:06;;;;;;;;;;;;;;;17.11;63.55;101196.84;4318053;33;19990;-83
2022/10/28 05:28:33;;;;;;;;;;;;;;;17.00;64.04;101190.59;4332526;33;19984;-82
2022/10/28 05:30:59;;;;;;;;;;;;;;;17.16;63.37;101186.41;4325057;33;20336;-82
2022/10/28 05:33:26;;;;;;;;;;;;;;;17.10;63.70;101189.87;4325799;33;20764;-82
2022/10/28 05:35:53;;;;;;;;;;;;;;;17.03;63.98;101198.47;4328449;33;19976;-83
2022/10/28 05:38:20;;;;;;;;;;;;;;;17.06;63.92;101195.03;4331550;33;20007;-81
2022/10/28 05:40:47;;;;;;;;;;;;;;;17.02;64.19;101196.72;4327296;33;19988;-84
2022/10/28 05:43:13;;;;;;;;;;;;;;;17.08;63.97;101198.56;3733241;33;10004317;-84
2022/10/28 05:45:40;;;;;;;;;;;;;;;17.13;63.51;101200.38;4325640;33;20007;-84
2022/10/28 05:48:07;;;;;;;;;;;;;;;17.17;63.54;101206.50;4325558;33;19999;-82
2022/10/28 05:50:34;;;;;;;;;;;;;;;16.90;64.27;101207.03;4329834;33;20006;-87
2022/10/28 05:53:01;;;;;;;;;;;;;;;16.96;64.27;101214.97;4340350;33;20266;-84
2022/10/28 05:55:28;;;;;;;;;;;;;;;16.85;64.83;101204.38;4340938;33;19992;-83
2022/10/28 05:57:55;;;;;;;;;;;;;;;17.02;64.46;101211.56;4336123;33;19976;-88
2022/10/28 06:00:23;;;;;;;;;;;;;;;16.59;65.52;101217.09;4329614;33;19999;-92
2022/10/28 06:02:50;;;;;;;;;;;;;;;16.77;64.71;101216.47;4327774;33;20029;-91
2022/10/28 06:05:18;;;;;;;;;;;;;;;16.63;65.48;101215.41;4326321;33;20000;-89
2022/10/28 06:07:45;;;;;;;;;;;;;;;16.88;64.63;101224.44;4324307;33;20012;-88
2022/10/28 06:10:13;;;;;;;;;;;;;;;16.83;64.92;101226.16;4326030;33;20002;-84
2022/10/28 06:12:39;;;;;;;;;;;;;;;16.56;65.76;101227.50;4326164;33;20027;-86
2022/10/28 06:15:07;;;;;;;;;;;;;;;16.89;64.75;101228.84;4326290;33;19992;-81
2022/10/28 06:17:34;;;;;;;;;;;;;;;16.82;64.85;101230.50;4332629;33;19994;-90
2022/10/28 06:20:00;;;;;;;;;;;;;;;16.87;64.71;101223.56;4325945;33;19998;-84
2022/10/28 06:22:27;;;;;;;;;;;;;;;16.64;65.38;101228.47;4325502;33;20340;-84
2022/10/28 06:24:54;;;;;;;;;;;;;;;16.65;65.27;101221.50;4328460;32;19987;-81
2022/10/28 06:27:21;;;;;;;;;;;;;;;17.00;64.02;101224.59;4331544;32;20305;-80
2022/10/28 06:29:49;;;;;;;;;;;;;;;16.92;64.55;101221.91;4332598;33;19992;-84
2022/10/28 06:32:16;;;;;;;;;;;;;;;17.09;63.91;101219.47;4338635;33;20328;-85
2022/10/28 06:34:42;;;;;;;;;;;;;;;16.96;64.42;101233.28;4340356;33;20276;-84
2022/10/28 06:37:09;;;;;;;;;;;;;;;16.93;64.32;101228.88;4340532;33;20027;-84
2022/10/28 06:46:01;;;;;;;;;;;;;;;16.98;64.34;101234.19;4348623;32;19988;-82
2022/10/28 06:48:36;;;;;;;;;;;;;;;16.89;64.28;101231.47;4340707;32;19999;-86
2022/10/28 06:52:22;;;;;;;;;;;;;;;;;;;;;
2022/10/28 06:59:27;;;;;;;;;;;;;;;;;;;;;
2022/10/28 07:05:51;;;;;;;;;;;;;;;17.00;64.21;101248.16;4204216;34;19998;-84
2022/10/28 07:09:08;;;;;;;;;;;;;;;17.08;64.07;101249.12;4191448;34;19999;-82
2022/10/28 07:12:26;;;;;;;;;;;;;;;17.01;64.23;101252.53;4311604;28;19988;-83
2022/10/28 07:15:34;;;;;;;;;;;;;;;16.95;64.44;101255.09;4280576;33;20688;-86
2022/10/28 07:18:30;;;;;;;;;;;;;;;16.79;64.80;101250.50;4280160;33;20001;-84
2022/10/28 07:22:24;;;;;;;;;;;;;;;16.99;64.35;101249.00;4263232;33;20884;-85
2022/10/28 07:32:39;;;;;;;;;;;;;;;17.08;64.04;101249.12;4278681;33;20331;-82
2022/10/28 07:35:18;;;;;;;;;;;;;;;17.05;64.08;101243.87;4279319;33;19997;-86
2022/10/28 07:38:25;;;;;;;;;;;;;;;;;;;;;
2022/10/28 07:42:17;;;;;;;;;;;;;;;;;;;;;
2022/10/28 07:46:08;;;;;;;;;;;;;;;;;;;;;
2022/10/28 07:49:45;;;;;;;;;;;;;;;17.22;63.18;101265.00;4254525;33;20395;-86
2022/10/28 07:52:55;;;;;;;;;;;;;;;17.07;63.82;101262.19;4268569;33;20040;-87
2022/10/28 08:02:07;;;;;;;;;;;;;;;16.82;64.40;101261.88;4328331;33;20007;-89
2022/10/28 08:06:10;;;;;;;;;;;;;;;16.98;64.26;101257.75;4424127;27;20006;-90
2022/10/28 08:09:23;;;;;;;;;;;;;;;16.61;65.40;101251.97;4329258;28;20867;-85
2022/10/28 08:12:27;;;;;;;;;;;;;;;16.67;65.22;101254.66;4320767;32;20009;-79
2022/10/28 08:14:56;;;;;;;;;;;;;;;16.73;64.90;101249.53;4338705;33;19998;-77
2022/10/28 08:17:23;;;;;;;;;;;;;;;17.00;64.06;101248.16;4351928;32;20042;-84
2022/10/28 08:19:50;;;;;;;;;;;;;;;16.59;65.36;101238.00;4349180;32;19988;-92
2022/10/28 08:22:24;;;;;;;;;;;;;;;16.79;64.80;101226.97;4338321;32;20054;-81
2022/10/28 08:24:50;;;;;;;;;;;;;;;16.89;64.69;101236.69;4328254;32;19999;-86
2022/10/28 08:27:18;;;;;;;;;;;;;;;16.89;64.43;101231.47;4352185;32;20002;-81
2022/10/28 08:29:45;;;;;;;;;;;;;;;16.99;64.33;101238.56;4356023;32;19989;-81
2022/10/28 08:32:15;;;;;;;;;;;;;;;16.87;64.27;101238.41;4341940;32;20819;-84
2022/10/28 08:34:42;;;;;;;;;;;;;;;16.79;64.84;101240.06;4355890;32;20488;-82
2022/10/28 08:37:09;;;;;;;;;;;;;;;17.13;63.45;101242.22;4356784;32;20018;-81
2022/10/28 08:39:36;;;;;;;;;;;;;;;16.70;64.50;101252.09;4355472;32;20811;-84
2022/10/28 08:42:22;;;;;;;;;;;;;;;16.74;64.25;101253.00;4366931;32;20003;-87
2022/10/28 08:44:52;;;;;;;;;;;;;;;16.85;64.11;101261.06;4355499;32;20022;-92
2022/10/28 08:47:22;;;;;;;;;;;;;;;16.86;64.45;101260.19;4356370;32;20030;-89
2022/10/28 08:49:49;;;;;;;;;;;;;;;17.04;63.45;101257.81;4341970;32;20002;-82
2022/10/28 08:52:31;;;;;;;;;;;;;;;17.06;63.53;101261.31;4342561;32;20011;-89
2022/10/28 08:55:01;;;;;;;;;;;;;;;17.08;63.68;101259.59;4354286;32;19991;-88
2022/10/28 08:57:31;;;;;;;;;;;;;;;17.13;63.39;101263.16;4354993;32;19991;-80
2022/10/28 08:59:58;;;;;;;;;;;;;;;17.25;62.94;101261.53;4355303;32;20312;-92
2022/10/28 09:02:27;;;;;;;;;;;;;;;17.20;62.87;101264.13;4353285;32;20001;-89
2022/10/28 09:05:14;;;;;;;;;;;;;;;17.16;62.98;101272.75;4353225;32;20371;-89
2022/10/28 09:07:41;;;;;;;;;;;;;;;17.03;63.36;101274.34;4352154;32;19975;-83
2022/10/28 09:10:09;;;;;;;;;;;;;;;17.18;63.26;101276.28;4353606;32;19975;-86
2022/10/28 09:12:39;;;;;;;;;;;;;;;17.12;63.35;101271.84;4342049;32;20009;-89
2022/10/28 09:15:11;;;;;;;;;;;;;;;17.23;63.09;101278.94;4354396;32;19992;-79
2022/10/28 09:17:51;;;;;;;;;;;;;;;17.24;63.23;101276.38;4342949;32;19987;-80
2022/10/28 09:20:34;;;;;;;;;;;;;;;17.26;63.30;101278.97;4354970;32;20009;-83
2022/10/28 09:23:09;;;;;;;;;;;;;;;17.20;62.76;101270.22;4355358;32;19987;-81
2022/10/28 09:25:55;;;;;;;;;;;;;;;17.26;62.70;101269.41;4354812;32;20321;-90
2022/10/28 09:28:29;;;;;;;;;;;;;;;16.97;63.75;101266.41;4355534;32;20336;-88
2022/10/28 09:31:02;;;;;;;;;;;;;;;16.90;63.92;101269.81;4339446;32;20025;-86
2022/10/28 09:33:52;;;;;;;;;;;;;;;17.15;63.16;101271.00;4351225;32;19991;-83
2022/10/28 09:36:26;;;;;;;;;;;;;;;17.21;62.90;101273.72;4329361;32;20110;-86
2022/10/28 09:38:54;;;;;;;;;;;;;;;16.89;63.99;101281.16;4342794;32;20466;-88
2022/10/28 09:41:22;;;;;;;;;;;;;;;17.22;62.44;101271.97;4395759;27;20015;-81
2022/10/28 09:44:07;;;;;;;;;;;;;;;17.26;62.54;101268.50;4341107;32;20002;-89
2022/10/28 09:46:34;;;;;;;;;;;;;;;17.30;62.38;101265.09;4328903;32;20002;-87
2022/10/28 09:49:04;;;;;;;;;;;;;;;17.31;62.54;101251.13;4309056;33;20050;-91
2022/10/28 09:51:42;;;;;;;;;;;;;;;17.27;63.11;101257.22;4313741;33;19995;-88
2022/10/28 09:54:09;;;;;;;;;;;;;;;17.09;63.63;101266.56;4324500;33;19991;-85
2022/10/28 09:56:36;;;;;;;;;;;;;;;17.05;63.51;101263.91;4324737;33;19984;-80
2022/10/28 09:59:03;;;;;;;;;;;;;;;16.99;63.90;101263.84;4324636;33;20361;-90
2022/10/28 10:01:35;;;;;;;;;;;;;;;17.11;63.41;101277.94;4326257;33;19995;-86
2022/10/28 10:04:11;;;;;;;;;;;;;;;17.10;63.28;101263.13;4325371;33;20014;-92
2022/10/28 10:06:38;;;;;;;;;;;;;;;17.05;63.48;101270.03;4310635;33;19984;-87
2022/10/28 10:09:05;;;;;;;;;;;;;;;17.11;63.25;101269.22;4324311;33;19988;-90
2022/10/28 10:11:33;;;;;;;;;;;;;;;17.04;62.93;101263.03;4309392;33;19990;-93
2022/10/28 10:14:07;;;;;;;;;;;;;;;16.95;63.32;101257.69;4309032;33;19992;-88
2022/10/28 10:16:54;;;;;;;;;;;;;;;17.04;63.07;101257.81;4323132;33;19992;-90
2022/10/28 10:19:21;;;;;;;;;;;;;;;17.27;62.27;101265.06;4324663;33;19988;-86
2022/10/28 10:21:49;;;;;;;;;;;;;;;17.01;63.05;101268.25;4311779;33;19988;-84
2022/10/28 10:24:28;;;;;;;;;;;;;;;17.07;62.83;101273.56;4312077;33;20007;-86
2022/10/28 10:26:58;;;;;;;;;;;;;;;17.07;62.38;101267.41;4304293;33;20008;-87
2022/10/28 10:29:26;;;;;;;;;;;;;;;17.30;61.97;101275.56;4321278;33;20023;-84
2022/10/28 10:32:06;;;;;;;;;;;;;;;17.14;62.37;101275.38;4297323;33;20796;-88
2022/10/28 10:34:33;;;;;;;;;;;;;;;17.24;61.95;101267.63;4324158;33;20394;-82
2022/10/28 10:37:00;;;;;;;;;;;;;;;17.06;62.72;101258.69;4344775;32;20001;-86
2022/10/28 10:39:30;;;;;;;;;;;;;;;16.91;63.09;101262.00;4339543;32;19987;-85
2022/10/28 10:42:00;;;;;;;;;;;;;;;17.07;62.60;101255.25;4353280;32;20363;-87
2022/10/28 10:44:32;;;;;;;;;;;;;;;17.20;62.07;101254.53;4338705;32;19991;-85
2022/10/28 10:46:59;;;;;;;;;;;;;;;17.18;62.23;101261.47;4355198;32;19987;-86
2022/10/28 10:49:32;;;;;;;;;;;;;;;16.72;63.72;101255.62;4354582;32;19971;-77
2022/10/28 10:52:16;;;;;;;;;;;;;;;17.10;62.41;101255.28;4353798;32;20331;-84
2022/10/28 10:55:03;;;;;;;;;;;;;;;17.14;62.65;101254.44;4353534;32;20332;-84
2022/10/28 10:57:30;;;;;;;;;;;;;;;17.08;62.85;101248.25;4340076;32;20001;-84
2022/10/28 10:59:58;;;;;;;;;;;;;;;16.96;63.59;101243.75;4358125;32;20006;-82
2022/10/28 11:02:34;;;;;;;;;;;;;;;17.23;62.40;101247.53;4364500;32;19986;-83
2022/10/28 11:05:11;;;;;;;;;;;;;;;17.19;62.40;101257.97;4336184;32;19995;-84
2022/10/28 11:07:39;;;;;;;;;;;;;;;16.99;62.67;101241.16;4350585;32;19979;-83
2022/10/28 11:10:06;;;;;;;;;;;;;;;16.89;63.24;101241.91;4353099;32;19988;-81
2022/10/28 11:12:37;;;;;;;;;;;;;;;17.19;62.53;101246.63;4354350;32;19975;-86
2022/10/28 11:15:15;;;;;;;;;;;;;;;17.20;62.11;101244.06;4365103;32;20017;-85
2022/10/28 11:17:52;;;;;;;;;;;;;;;17.21;62.53;101244.94;4354621;32;19998;-88
2022/10/28 11:20:45;;;;;;;;;;;;;;;17.03;62.63;101245.56;4341441;32;20006;-86
2022/10/28 11:23:26;;;;;;;;;;;;;;;16.90;63.29;101243.66;4339214;32;20014;-94
2022/10/28 11:26:01;;;;;;;;;;;;;;;17.08;62.83;101246.50;4329108;32;833008;-92
2022/10/28 11:28:58;;;;;;;;;;;;;;;17.34;61.88;101240.69;4338322;32;20013;-89
2022/10/28 11:34:36;;;;;;;;;;;;;;;17.10;62.96;101247.44;4336491;32;20002;-81
2022/10/28 11:37:18;;;;;;;;;;;;;;;17.26;62.17;101242.34;4353377;32;19994;-83
2022/10/28 11:39:53;;;;;;;;;;;;;;;16.92;63.00;101248.06;4326256;32;20796;-87
2022/10/28 11:42:32;;;;;;;;;;;;;;;16.71;63.78;101246.00;4343242;32;19994;-85
2022/10/28 11:45:03;;;;;;;;;;;;;;;17.14;62.35;101238.75;4339685;33;20031;-86
2022/10/28 11:47:46;;;;;;;;;;;;;;;17.00;63.14;101237.69;4338259;33;20268;-88
2022/10/28 11:50:32;;;;;;;;;;;;;;;17.09;63.02;101224.72;4340746;33;19979;-90
2022/10/28 11:53:21;;;;;;;;;;;;;;;17.22;62.44;101219.63;4338482;33;20055;-89
2022/10/28 11:55:51;;;;;;;;;;;;;;;17.10;62.91;101223.87;4324675;33;20038;-87
2022/10/28 11:58:31;;;;;;;;;;;;;;;17.01;63.49;101215.91;4339650;27;20853;-89
2022/10/28 12:00:58;;;;;;;;;;;;;;;17.14;63.21;101217.81;4351130;32;19983;-87
2022/10/28 12:03:31;;;;;;;;;;;;;;;17.07;63.31;101220.31;4338502;33;19980;-87
2022/10/28 12:06:30;;;;;;;;;;;;;;;16.93;63.69;101212.31;4348867;32;19987;-86
2022/10/28 12:09:18;;;;;;;;;;;;;;;17.34;62.22;101206.69;4331208;32;19988;-83
2022/10/28 12:12:28;;;;;;;;;;;;;;;17.29;62.58;101205.75;4338473;32;20418;-84
2022/10/28 12:15:35;;;;;;;;;;;;;;;17.28;62.60;101204.00;4350486;32;20072;-88
2022/10/28 12:18:30;;;;;;;;;;;;;;;17.33;62.52;101186.63;4352879;32;19999;-85
2022/10/28 12:21:30;;;;;;;;;;;;;;;17.36;62.30;101202.34;4355445;27;20627;-85
2022/10/28 12:23:57;;;;;;;;;;;;;;;17.31;62.63;101199.66;4338786;32;20003;-83
2022/10/28 12:26:43;;;;;;;;;;;;;;;17.39;62.54;101197.16;4338957;32;20001;-88
2022/10/28 12:29:16;;;;;;;;;;;;;;;17.37;62.60;101189.25;4338539;32;19979;-86
2022/10/28 12:32:09;;;;;;;;;;;;;;;17.22;63.12;101190.84;4339090;32;20055;-86
2022/10/28 12:34:38;;;;;;;;;;;;;;;17.14;63.74;101191.66;4338129;32;20042;-85
2022/10/28 12:37:06;;;;;;;;;;;;;;;17.31;63.16;101183.97;4326014;32;20042;-86
2022/10/28 12:39:38;;;;;;;;;;;;;;;17.38;62.80;101174.44;4337919;32;20031;-88
2022/10/28 12:42:09;;;;;;;;;;;;;;;17.54;62.15;101172.81;4321384;32;20010;-86
2022/10/28 12:44:35;;;;;;;;;;;;;;;17.75;61.34;101180.00;4336632;32;20025;-82
2022/10/28 12:47:11;;;;;;;;;;;;;;;17.46;62.38;101172.78;4350682;32;19987;-82
2022/10/28 12:52:54;;;;;;;;;;;;;;;17.43;62.67;101162.28;4348333;32;19983;-87
2022/10/28 12:55:55;;;;;;;;;;;;;;;17.50;62.58;101168.44;4279317;33;19993;-82
2022/10/28 12:58:37;;;;;;;;;;;;;;;17.39;62.92;101170.97;4278739;33;20015;-82
2022/10/28 13:01:14;;;;;;;;;;;;;;;17.47;62.49;101174.53;4280516;33;20852;-88
2022/10/28 13:03:43;;;;;;;;;;;;;;;17.55;62.51;101166.72;4279236;33;20001;-86
2022/10/28 13:06:31;;;;;;;;;;;;;;;17.22;63.44;101156.81;4279703;33;20009;-81
2022/10/28 13:09:09;;;;;;;;;;;;;;;17.57;61.96;101160.62;4279639;33;19997;-84
2022/10/28 13:11:52;;;;;;;;;;;;;;;17.54;62.24;101155.37;4279203;33;19981;-88
2022/10/28 13:14:40;;;;;;;;;;;;;;;17.57;62.13;101155.41;4311010;27;19996;-81
2022/10/28 13:17:13;;;;;;;;;;;;;;;17.64;62.19;101157.22;4317298;33;20010;-89
2022/10/28 13:19:40;;;;;;;;;;;;;;;17.24;63.64;101152.50;4304357;33;19996;-84
2022/10/28 13:22:17;;;;;;;;;;;;;;;17.18;63.82;101156.78;4314768;33;19983;-82
2022/10/28 13:24:50;;;;;;;;;;;;;;;17.42;62.73;101160.50;4309819;33;19988;-83
2022/10/28 13:27:18;;;;;;;;;;;;;;;17.41;63.07;101158.75;4320855;33;19979;-79
2022/10/28 13:29:48;;;;;;;;;;;;;;;17.61;62.39;101162.44;4331694;33;19996;-87
2022/10/28 13:32:27;;;;;;;;;;;;;;;17.55;62.66;101165.00;4339424;32;19979;-85
2022/10/28 13:35:09;;;;;;;;;;;;;;;17.42;63.14;101165.72;4348564;32;20392;-85
2022/10/28 13:37:39;;;;;;;;;;;;;;;17.38;63.64;101163.97;4355476;32;19991;-88
2022/10/28 13:40:12;;;;;;;;;;;;;;;17.57;62.81;101163.25;4345625;32;19993;-86
2022/10/28 13:42:44;;;;;;;;;;;;;;;17.35;63.44;101170.03;3889625;32;5004244;-83
2022/10/28 13:45:30;;;;;;;;;;;;;;;17.45;63.25;101165.75;4355767;32;19983;-91
2022/10/28 13:48:15;;;;;;;;;;;;;;;17.27;63.96;101155.16;4356016;32;19997;-86
2022/10/28 13:50:42;;;;;;;;;;;;;;;17.14;64.28;101155.00;4355175;32;19991;-84
2022/10/28 13:53:27;;;;;;;;;;;;;;;17.24;64.10;101155.97;4342167;32;20027;-88
2022/10/28 13:55:55;;;;;;;;;;;;;;;17.50;63.52;101157.97;4354646;32;19984;-87